createdAt,value
2022-09-28T00:00:29.835Z,1.20
2022-09-28T00:01:31.934Z,1.25
2022-09-28T00:02:35.467Z,1.38
2022-09-28T00:03:37.364Z,1.25
2022-09-28T00:04:39.180Z,1.30
2022-09-28T00:05:40.984Z,1.35
2022-09-28T00:06:42.828Z,1.20
2022-09-28T00:07:44.933Z,1.30
2022-09-28T00:08:46.702Z,1.40
2022-09-28T00:09:48.428Z,1.20
2022-09-28T00:10:55.988Z,1.10
2022-09-28T00:11:57.839Z,1.45
2022-09-28T00:13:01.454Z,1.30
2022-09-28T00:14:04.011Z,1.27
2022-09-28T00:15:06.065Z,1.20
2022-09-28T00:16:11.458Z,1.30
2022-09-28T00:17:13.959Z,1.25
2022-09-28T00:18:15.678Z,1.30
2022-09-28T00:19:17.779Z,1.10
2022-09-28T00:20:19.848Z,1.15
2022-09-28T00:21:24.442Z,1.10
2022-09-28T00:22:26.189Z,1.33
2022-09-28T00:23:27.954Z,1.42
2022-09-28T00:24:30.769Z,1.00
2022-09-28T00:25:33.117Z,0.98
2022-09-28T00:26:34.901Z,1.52
2022-09-28T00:27:36.640Z,1.83
2022-09-28T00:28:38.341Z,1.10
2022-09-28T00:29:40.076Z,1.25
2022-09-28T00:30:41.775Z,1.23
2022-09-28T00:31:43.559Z,1.25
2022-09-28T00:32:45.355Z,1.00
2022-09-28T00:33:55.379Z,1.13
2022-09-28T00:34:57.236Z,1.20
2022-09-28T00:35:59.456Z,1.25
2022-09-28T00:37:02.519Z,1.30
2022-09-28T00:38:04.295Z,1.00
2022-09-28T00:39:08.247Z,1.30
2022-09-28T00:40:10.148Z,1.13
2022-09-28T00:41:12.045Z,0.90
2022-09-28T00:42:25.104Z,0.85
2022-09-28T00:43:27.062Z,1.35
2022-09-28T00:44:46.412Z,1.20
2022-09-28T00:46:04.543Z,1.00
2022-09-28T00:47:20.022Z,1.45
2022-09-28T00:48:21.805Z,1.10
2022-09-28T00:49:35.089Z,1.10
2022-09-28T00:50:37.705Z,1.20
2022-09-28T00:51:42.669Z,1.20
2022-09-28T00:53:01.410Z,1.05
2022-09-28T00:54:06.358Z,1.13
2022-09-28T00:55:13.267Z,1.42
2022-09-28T00:56:21.574Z,1.40
2022-09-28T00:57:24.111Z,0.95
2022-09-28T00:58:32.238Z,1.17
2022-09-28T00:59:34.350Z,1.10
2022-09-28T01:00:36.267Z,1.13
2022-09-28T01:01:38.099Z,1.02
2022-09-28T01:02:41.693Z,1.10
2022-09-28T01:03:48.725Z,1.20
2022-09-28T01:04:52.247Z,1.20
2022-09-28T01:05:57.824Z,1.13
2022-09-28T01:07:00.380Z,1.15
2022-09-28T01:08:03.374Z,1.10
2022-09-28T01:09:08.696Z,1.20
2022-09-28T01:10:11.157Z,1.10
2022-09-28T01:11:12.903Z,1.10
2022-09-28T01:12:14.713Z,1.10
2022-09-28T01:13:19.468Z,1.30
2022-09-28T01:14:24.950Z,1.25
2022-09-28T01:15:29.269Z,1.08
2022-09-28T01:16:46.229Z,1.10
2022-09-28T01:18:10.145Z,1.20
2022-09-28T01:19:29.751Z,1.20
2022-09-28T01:20:59.800Z,1.40
2022-09-28T01:22:35.405Z,0.88
2022-09-28T01:23:55.784Z,1.35
2022-09-28T01:25:00.301Z,1.17
2022-09-28T01:26:34.301Z,1.05
2022-09-28T01:27:51.597Z,1.00
2022-09-28T01:29:00.476Z,1.00
2022-09-28T01:30:11.989Z,0.88
2022-09-28T01:31:16.508Z,0.90
2022-09-28T01:32:33.133Z,1.10
2022-09-28T01:33:46.766Z,1.02
2022-09-28T01:35:15.537Z,1.10
2022-09-28T01:36:27.216Z,1.40
2022-09-28T01:37:55.879Z,1.15
2022-09-28T01:39:05.928Z,1.23
2022-09-28T01:40:10.402Z,1.60
2022-09-28T01:41:13.647Z,1.10
2022-09-28T01:42:30.102Z,1.13
2022-09-28T01:43:35.929Z,1.10
2022-09-28T01:44:44.564Z,0.80
2022-09-28T01:46:05.008Z,0.95
2022-09-28T01:47:12.596Z,1.10
2022-09-28T01:48:26.445Z,1.10
2022-09-28T01:49:34.839Z,0.70
2022-09-28T01:50:42.492Z,1.10
2022-09-28T01:51:51.760Z,1.08
2022-09-28T01:53:43.140Z,1.05
2022-09-28T01:54:59.179Z,0.85
2022-09-28T01:56:11.638Z,1.10
2022-09-28T01:57:38.508Z,0.80
2022-09-28T01:58:45.816Z,1.08
2022-09-28T02:00:03.052Z,1.13
2022-09-28T02:01:21.853Z,0.80
2022-09-28T02:02:29.669Z,1.00
2022-09-28T02:03:57.442Z,1.00
2022-09-28T02:05:13.473Z,1.35
2022-09-28T02:06:23.205Z,0.90
2022-09-28T02:07:38.230Z,1.17
2022-09-28T02:08:46.848Z,0.93
2022-09-28T02:10:03.296Z,0.90
2022-09-28T02:11:19.575Z,1.20
2022-09-28T02:12:33.655Z,1.33
2022-09-28T02:13:43.384Z,0.68
2022-09-28T02:14:49.196Z,1.02
2022-09-28T02:15:56.218Z,0.90
2022-09-28T02:16:59.106Z,1.30
2022-09-28T02:18:05.084Z,0.90
2022-09-28T02:19:12.870Z,0.95
2022-09-28T02:20:16.030Z,1.00
2022-09-28T02:21:20.796Z,0.80
2022-09-28T02:22:34.163Z,1.23
2022-09-28T02:23:39.825Z,1.17
2022-09-28T02:25:13.886Z,1.10
2022-09-28T02:26:22.966Z,1.08
2022-09-28T02:27:40.068Z,1.27
2022-09-28T02:28:41.960Z,1.02
2022-09-28T02:29:43.767Z,1.48
2022-09-28T02:30:46.164Z,1.10
2022-09-28T02:31:51.055Z,1.10
2022-09-28T02:32:59.141Z,1.00
2022-09-28T02:34:01.113Z,0.90
2022-09-28T02:35:03.033Z,0.80
2022-09-28T02:36:05.764Z,0.93
2022-09-28T02:37:12.639Z,1.23
2022-09-28T02:38:15.262Z,0.93
2022-09-28T02:39:19.162Z,1.10
2022-09-28T02:40:29.136Z,0.80
2022-09-28T02:41:46.217Z,1.13
2022-09-28T02:43:02.217Z,1.38
2022-09-28T02:44:39.476Z,1.00
2022-09-28T02:46:06.330Z,1.00
2022-09-28T02:47:41.009Z,0.70
2022-09-28T02:49:17.321Z,1.00
2022-09-28T02:50:21.131Z,0.73
2022-09-28T02:51:30.561Z,1.00
2022-09-28T02:52:32.634Z,1.33
2022-09-28T02:53:46.813Z,0.98
2022-09-28T02:55:10.174Z,1.00
2022-09-28T02:56:54.972Z,0.93
2022-09-28T02:58:18.987Z,1.13
2022-09-28T02:59:29.856Z,1.20
2022-09-28T03:00:42.226Z,1.10
2022-09-28T03:02:11.848Z,1.08
2022-09-28T03:03:35.474Z,0.80
2022-09-28T03:04:52.541Z,1.40
2022-09-28T03:06:23.694Z,1.10
2022-09-28T03:07:34.102Z,1.30
2022-09-28T03:08:53.393Z,1.10
2022-09-28T03:10:07.593Z,1.02
2022-09-28T03:11:22.420Z,0.88
2022-09-28T03:12:29.392Z,0.98
2022-09-28T03:13:32.695Z,1.20
2022-09-28T03:14:34.486Z,1.10
2022-09-28T03:15:37.303Z,1.00
2022-09-28T03:16:44.370Z,0.82
2022-09-28T03:17:46.489Z,1.20
2022-09-28T03:18:48.949Z,1.17
2022-09-28T03:19:51.203Z,1.00
2022-09-28T03:20:52.949Z,0.93
2022-09-28T03:21:55.728Z,0.80
2022-09-28T03:23:22.903Z,1.08
2022-09-28T03:24:19.629Z,1.05
2022-09-28T03:25:21.405Z,0.80
2022-09-28T03:26:23.139Z,1.13
2022-09-28T03:27:24.894Z,1.00
2022-09-28T03:28:27.253Z,1.27
2022-09-28T03:29:31.661Z,1.38
2022-09-28T03:30:37.084Z,1.00
2022-09-28T03:31:39.057Z,1.00
2022-09-28T03:32:41.550Z,0.90
2022-09-28T03:33:44.461Z,1.08
2022-09-28T03:34:46.347Z,1.20
2022-09-28T03:35:50.467Z,1.02
2022-09-28T03:36:52.962Z,1.02
2022-09-28T03:37:56.510Z,0.90
2022-09-28T03:39:00.359Z,1.05
2022-09-28T03:40:03.420Z,0.63
2022-09-28T03:41:05.386Z,0.88
2022-09-28T03:42:11.875Z,0.98
2022-09-28T03:43:18.724Z,1.00
2022-09-28T03:44:20.820Z,1.08
2022-09-28T03:45:23.475Z,1.10
2022-09-28T03:46:26.490Z,1.08
2022-09-28T03:47:31.708Z,0.80
2022-09-28T03:48:35.274Z,1.15
2022-09-28T03:49:37.293Z,1.00
2022-09-28T03:50:39.043Z,0.90
2022-09-28T03:51:40.888Z,0.98
2022-09-28T03:52:43.843Z,0.95
2022-09-28T03:53:45.681Z,0.73
2022-09-28T03:54:49.320Z,0.95
2022-09-28T03:55:53.412Z,1.02
2022-09-28T03:56:55.278Z,0.90
2022-09-28T03:57:57.257Z,0.70
2022-09-28T03:58:59.031Z,1.30
2022-09-28T04:00:02.088Z,1.02
2022-09-28T04:01:07.167Z,0.80
2022-09-28T04:02:09.178Z,0.90
2022-09-28T04:03:10.940Z,1.10
2022-09-28T04:04:13.574Z,0.80
2022-09-28T04:05:15.338Z,0.70
2022-09-28T04:06:17.156Z,0.95
2022-09-28T04:07:18.892Z,0.80
2022-09-28T04:08:21.465Z,0.93
2022-09-28T04:09:23.830Z,0.70
2022-09-28T04:10:26.303Z,1.08
2022-09-28T04:11:38.518Z,0.90
2022-09-28T04:12:54.935Z,0.90
2022-09-28T04:13:56.948Z,0.70
2022-09-28T04:14:58.783Z,0.90
2022-09-28T04:16:01.729Z,0.90
2022-09-28T04:17:07.339Z,1.00
2022-09-28T04:18:13.776Z,1.00
2022-09-28T04:19:31.025Z,0.90
2022-09-28T04:21:07.630Z,1.00
2022-09-28T04:22:14.396Z,0.80
2022-09-28T04:23:16.169Z,0.90
2022-09-28T04:24:20.379Z,0.80
2022-09-28T04:25:22.502Z,0.88
2022-09-28T04:26:26.411Z,0.90
2022-09-28T04:27:46.554Z,0.82
2022-09-28T04:29:07.142Z,0.93
2022-09-28T04:30:10.819Z,0.82
2022-09-28T04:31:17.129Z,1.00
2022-09-28T04:32:19.078Z,0.95
2022-09-28T04:33:20.789Z,1.10
2022-09-28T04:34:23.343Z,0.98
2022-09-28T04:35:25.316Z,0.90
2022-09-28T04:36:27.116Z,1.08
2022-09-28T04:37:31.299Z,0.98
2022-09-28T04:38:51.712Z,0.98
2022-09-28T04:39:54.362Z,1.00
2022-09-28T04:40:56.128Z,1.00
2022-09-28T04:41:57.980Z,0.90
2022-09-28T04:42:59.787Z,0.90
2022-09-28T04:44:01.973Z,0.90
2022-09-28T04:45:04.929Z,1.33
2022-09-28T04:46:10.717Z,0.82
2022-09-28T04:47:18.904Z,1.02
2022-09-28T04:48:40.843Z,0.88
2022-09-28T04:49:59.798Z,1.15
2022-09-28T04:51:06.784Z,1.08
2022-09-28T04:52:08.863Z,0.90
2022-09-28T04:53:10.660Z,0.90
2022-09-28T04:54:12.477Z,0.90
2022-09-28T04:55:14.635Z,0.80
2022-09-28T04:56:18.089Z,0.82
2022-09-28T04:57:19.811Z,0.90
2022-09-28T04:58:21.580Z,0.95
2022-09-28T04:59:23.429Z,1.00
2022-09-28T05:00:25.285Z,1.02
2022-09-28T05:01:41.377Z,1.17
2022-09-28T05:03:01.883Z,0.80
2022-09-28T05:04:26.126Z,1.00
2022-09-28T05:05:48.063Z,1.00
2022-09-28T05:07:09.360Z,1.00
2022-09-28T05:08:12.372Z,0.88
2022-09-28T05:09:15.296Z,0.98
2022-09-28T05:10:18.815Z,1.00
2022-09-28T05:11:21.703Z,0.80
2022-09-28T05:12:24.319Z,0.90
2022-09-28T05:13:26.657Z,1.00
2022-09-28T05:14:28.403Z,0.85
2022-09-28T05:15:31.086Z,1.10
2022-09-28T05:16:34.178Z,1.10
2022-09-28T05:18:11.430Z,1.13
2022-09-28T05:19:30.277Z,1.00
2022-09-28T05:20:41.497Z,1.05
2022-09-28T05:21:45.511Z,0.80
2022-09-28T05:22:47.285Z,0.85
2022-09-28T05:23:49.033Z,0.80
2022-09-28T05:24:50.891Z,0.80
2022-09-28T05:25:53.369Z,1.08
2022-09-28T05:27:05.394Z,0.90
2022-09-28T05:28:08.125Z,0.90
2022-09-28T05:29:28.984Z,0.88
2022-09-28T05:31:11.852Z,0.70
2022-09-28T05:32:33.882Z,1.00
2022-09-28T05:33:46.183Z,0.80
2022-09-28T05:34:48.859Z,0.90
2022-09-28T05:36:01.059Z,0.68
2022-09-28T05:37:03.906Z,0.95
2022-09-28T05:38:05.981Z,0.75
2022-09-28T05:39:09.332Z,0.90
2022-09-28T05:40:11.830Z,1.00
2022-09-28T05:41:14.223Z,0.77
2022-09-28T05:42:16.020Z,0.82
2022-09-28T05:43:18.279Z,0.80
2022-09-28T05:44:20.026Z,0.80
2022-09-28T05:45:22.890Z,0.60
2022-09-28T05:46:25.383Z,0.70
2022-09-28T05:47:27.695Z,0.80
2022-09-28T05:48:30.188Z,0.50
2022-09-28T05:49:31.996Z,0.60
2022-09-28T05:50:35.951Z,0.77
2022-09-28T05:51:38.322Z,0.80
2022-09-28T05:52:40.760Z,0.90
2022-09-28T05:53:43.249Z,0.60
2022-09-28T05:54:45.567Z,1.00
2022-09-28T05:55:47.929Z,0.60
2022-09-28T05:56:49.735Z,0.52
2022-09-28T05:57:51.835Z,0.80
2022-09-28T05:58:53.898Z,0.80
2022-09-28T05:59:57.878Z,1.02
2022-09-28T06:00:59.751Z,0.60
2022-09-28T06:02:02.481Z,0.70
2022-09-28T06:03:09.307Z,0.70
2022-09-28T06:04:11.698Z,0.60
2022-09-28T06:05:13.777Z,0.90
2022-09-28T06:06:15.636Z,0.70
2022-09-28T06:07:19.065Z,0.60
2022-09-28T06:08:21.274Z,0.77
2022-09-28T06:09:31.325Z,0.77
2022-09-28T06:10:53.557Z,1.00
2022-09-28T06:11:55.495Z,0.65
2022-09-28T06:13:08.680Z,1.20
2022-09-28T06:14:11.058Z,0.75
2022-09-28T06:15:13.307Z,0.82
2022-09-28T06:16:16.845Z,0.60
2022-09-28T06:17:18.835Z,0.90
2022-09-28T06:18:26.854Z,0.73
2022-09-28T06:19:47.455Z,0.63
2022-09-28T06:21:01.132Z,0.60
2022-09-28T06:22:09.130Z,1.05
2022-09-28T06:23:19.921Z,0.80
2022-09-28T06:24:21.666Z,0.60
2022-09-28T06:25:24.524Z,0.70
2022-09-28T06:26:26.224Z,0.75
2022-09-28T06:27:28.544Z,0.63
2022-09-28T06:28:30.522Z,0.82
2022-09-28T06:29:32.488Z,0.85
2022-09-28T06:30:38.252Z,0.70
2022-09-28T06:31:42.370Z,0.77
2022-09-28T06:32:44.507Z,0.70
2022-09-28T06:33:48.058Z,0.80
2022-09-28T06:34:55.425Z,0.90
2022-09-28T06:36:00.226Z,0.70
2022-09-28T06:37:04.725Z,0.80
2022-09-28T06:38:07.966Z,0.90
2022-09-28T06:39:09.726Z,0.80
2022-09-28T06:40:12.050Z,0.70
2022-09-28T06:41:14.769Z,0.80
2022-09-28T06:42:18.737Z,0.80
2022-09-28T06:43:48.196Z,0.80
2022-09-28T06:45:09.415Z,0.50
2022-09-28T06:46:40.266Z,0.80
2022-09-28T06:47:59.544Z,0.75
2022-09-28T06:49:15.102Z,0.70
2022-09-28T06:50:42.304Z,0.73
2022-09-28T06:52:22.362Z,0.90
2022-09-28T06:53:47.204Z,0.63
2022-09-28T06:55:11.854Z,0.70
2022-09-28T06:56:18.090Z,0.73
2022-09-28T06:57:19.990Z,0.75
2022-09-28T06:58:23.369Z,0.60
2022-09-28T06:59:25.553Z,0.60
2022-09-28T07:00:29.280Z,0.70
2022-09-28T07:01:31.145Z,0.75
2022-09-28T07:02:53.328Z,0.98
2022-09-28T07:04:19.613Z,0.60
2022-09-28T07:05:51.335Z,0.50
2022-09-28T07:07:11.601Z,0.75
2022-09-28T07:08:32.854Z,0.82
2022-09-28T07:10:00.428Z,0.60
2022-09-28T07:11:39.708Z,0.70
2022-09-28T07:13:12.782Z,0.60
2022-09-28T07:14:40.037Z,0.60
2022-09-28T07:15:47.835Z,0.63
2022-09-28T07:17:11.698Z,0.65
2022-09-28T07:18:13.149Z,0.75
2022-09-28T07:19:17.452Z,0.68
2022-09-28T07:20:20.256Z,0.60
2022-09-28T07:21:29.796Z,0.60
2022-09-28T07:22:43.105Z,0.70
2022-09-28T07:23:53.715Z,0.60
2022-09-28T07:24:58.650Z,0.80
2022-09-28T07:26:24.550Z,0.68
2022-09-28T07:28:02.588Z,0.70
2022-09-28T07:29:19.007Z,0.65
2022-09-28T07:30:35.798Z,0.50
2022-09-28T07:31:41.939Z,0.57
2022-09-28T07:33:03.708Z,0.85
2022-09-28T07:34:43.962Z,0.63
2022-09-28T07:36:06.578Z,0.80
2022-09-28T07:37:11.848Z,0.55
2022-09-28T07:38:13.646Z,0.70
2022-09-28T07:39:15.349Z,0.52
2022-09-28T07:40:36.037Z,0.63
2022-09-28T07:41:41.506Z,1.00
2022-09-28T07:42:43.520Z,0.70
2022-09-28T07:43:46.981Z,0.70
2022-09-28T07:44:48.878Z,0.60
2022-09-28T07:45:52.791Z,0.60
2022-09-28T07:46:54.997Z,0.50
2022-09-28T07:49:39.322Z,0.90
2022-09-28T07:51:04.885Z,0.50
2022-09-28T07:52:35.233Z,0.70
2022-09-28T07:53:50.185Z,0.65
2022-09-28T07:55:12.868Z,0.65
2022-09-28T07:56:37.744Z,0.65
2022-09-28T07:58:01.682Z,0.47
2022-09-28T07:59:26.474Z,0.55
2022-09-28T08:00:48.407Z,0.73
2022-09-28T08:01:51.271Z,0.65
2022-09-28T08:02:53.027Z,0.77
2022-09-28T08:03:59.245Z,0.70
2022-09-28T08:05:02.529Z,0.50
2022-09-28T08:06:07.319Z,0.40
2022-09-28T08:07:10.943Z,0.57
2022-09-28T08:08:13.473Z,0.57
2022-09-28T08:09:15.328Z,0.60
2022-09-28T08:10:37.889Z,0.60
2022-09-28T08:12:14.905Z,0.50
2022-09-28T08:13:23.468Z,0.70
2022-09-28T08:14:48.068Z,0.93
2022-09-28T08:16:17.966Z,0.60
2022-09-28T08:17:28.332Z,0.70
2022-09-28T08:18:33.268Z,0.77
2022-09-28T08:19:53.804Z,0.60
2022-09-28T08:21:14.057Z,0.75
2022-09-28T08:22:20.562Z,0.40
2022-09-28T08:23:25.092Z,0.70
2022-09-28T08:24:31.090Z,0.50
2022-09-28T08:25:34.189Z,0.60
2022-09-28T08:26:38.126Z,0.73
2022-09-28T08:27:39.891Z,0.70
2022-09-28T08:28:43.285Z,0.57
2022-09-28T08:30:05.504Z,0.57
2022-09-28T08:31:31.248Z,0.60
2022-09-28T08:32:51.036Z,0.70
2022-09-28T08:34:01.901Z,0.60
2022-09-28T08:35:22.459Z,0.70
2022-09-28T08:36:44.434Z,0.68
2022-09-28T08:38:04.851Z,0.50
2022-09-28T08:39:38.387Z,0.40
2022-09-28T08:41:34.956Z,0.75
2022-09-28T08:42:45.996Z,0.60
2022-09-28T08:44:09.808Z,0.80
2022-09-28T08:45:44.142Z,0.60
2022-09-28T08:47:29.691Z,0.65
2022-09-28T08:49:20.691Z,0.70
2022-09-28T08:51:09.872Z,0.57
2022-09-28T08:52:28.434Z,0.70
2022-09-28T08:54:08.154Z,0.60
2022-09-28T08:55:37.326Z,0.55
2022-09-28T08:56:50.597Z,0.60
2022-09-28T08:58:09.355Z,0.52
2022-09-28T08:59:16.385Z,0.50
2022-09-28T09:00:28.067Z,0.60
2022-09-28T09:01:40.633Z,0.45
2022-09-28T09:02:47.952Z,0.65
2022-09-28T09:03:52.729Z,0.52
2022-09-28T09:05:14.985Z,0.45
2022-09-28T09:07:08.588Z,0.50
2022-09-28T09:08:33.038Z,0.73
2022-09-28T09:09:35.275Z,0.60
2022-09-28T09:11:09.579Z,0.70
2022-09-28T09:12:35.940Z,0.68
2022-09-28T09:13:50.064Z,0.50
2022-09-28T09:14:58.921Z,0.98
2022-09-28T09:16:25.699Z,0.60
2022-09-28T09:18:19.997Z,0.80
2022-09-28T09:19:48.907Z,0.73
2022-09-28T09:20:59.303Z,0.63
2022-09-28T09:22:38.803Z,0.90
2022-09-28T09:23:55.508Z,0.50
2022-09-28T09:25:19.726Z,0.63
2022-09-28T09:26:35.100Z,0.60
2022-09-28T09:27:43.593Z,0.60
2022-09-28T09:28:45.312Z,0.45
2022-09-28T09:30:03.494Z,0.85
2022-09-28T09:31:25.224Z,0.82
2022-09-28T09:32:34.360Z,0.60
2022-09-28T09:33:54.596Z,0.80
2022-09-28T09:35:22.735Z,0.88
2022-09-28T09:37:20.648Z,0.80
2022-09-28T09:39:09.111Z,0.65
2022-09-28T09:41:01.292Z,0.93
2022-09-28T09:42:40.379Z,0.73
2022-09-28T09:44:14.799Z,0.80
2022-09-28T09:45:50.111Z,0.57
2022-09-28T09:47:19.938Z,0.63
2022-09-28T09:49:04.359Z,0.73
2022-09-28T09:50:17.968Z,0.80
2022-09-28T09:51:28.038Z,0.90
2022-09-28T09:52:46.726Z,0.70
2022-09-28T09:54:00.114Z,0.70
2022-09-28T09:55:11.012Z,0.85
2022-09-28T09:57:13.349Z,0.63
2022-09-28T09:58:47.870Z,0.60
2022-09-28T10:00:11.090Z,0.45
2022-09-28T10:01:19.526Z,0.50
2022-09-28T10:02:53.370Z,0.75
2022-09-28T10:04:40.479Z,0.95
2022-09-28T10:06:01.465Z,0.50
2022-09-28T10:07:05.871Z,0.60
2022-09-28T10:08:09.432Z,0.90
2022-09-28T10:09:28.192Z,0.95
2022-09-28T10:10:44.613Z,0.70
2022-09-28T10:11:51.993Z,0.73
2022-09-28T10:12:54.419Z,0.70
2022-09-28T10:13:57.851Z,0.60
2022-09-28T10:15:27.994Z,0.98
2022-09-28T10:16:51.215Z,0.65
2022-09-28T10:18:16.174Z,0.60
2022-09-28T10:19:37.896Z,1.00
2022-09-28T10:20:58.269Z,0.80
2022-09-28T10:22:22.696Z,0.47
2022-09-28T10:23:31.541Z,0.70
2022-09-28T10:24:38.774Z,0.77
2022-09-28T10:25:44.026Z,0.75
2022-09-28T10:26:50.972Z,1.05
2022-09-28T10:27:52.821Z,0.80
2022-09-28T10:29:02.081Z,0.70
2022-09-28T10:30:10.198Z,0.77
2022-09-28T10:31:34.462Z,0.68
2022-09-28T10:32:41.438Z,0.90
2022-09-28T10:33:43.275Z,0.60
2022-09-28T10:34:50.174Z,0.73
2022-09-28T10:35:54.873Z,0.70
2022-09-28T10:36:58.383Z,0.75
2022-09-28T10:38:04.760Z,0.70
2022-09-28T10:39:30.154Z,0.75
2022-09-28T10:40:40.539Z,0.80
2022-09-28T10:41:49.897Z,0.93
2022-09-28T10:43:07.907Z,0.55
2022-09-28T10:44:18.816Z,0.80
2022-09-28T10:45:44.973Z,0.88
2022-09-28T10:46:57.058Z,0.88
2022-09-28T10:48:00.915Z,0.68
2022-09-28T10:49:02.631Z,0.93
2022-09-28T10:50:21.287Z,0.98
2022-09-28T10:51:43.752Z,0.70
2022-09-28T10:52:50.550Z,1.02
2022-09-28T10:54:19.406Z,0.90
2022-09-28T10:55:33.332Z,0.80
2022-09-28T10:56:37.794Z,0.70
2022-09-28T10:57:46.071Z,0.65
2022-09-28T10:58:48.190Z,0.95
2022-09-28T10:59:57.776Z,0.70
2022-09-28T11:01:29.426Z,0.70
2022-09-28T11:02:36.326Z,0.95
2022-09-28T11:03:56.442Z,0.90
2022-09-28T11:05:01.487Z,0.70
2022-09-28T11:06:08.825Z,0.90
2022-09-28T11:07:21.210Z,0.60
2022-09-28T11:08:28.855Z,0.90
2022-09-28T11:09:36.978Z,0.57
2022-09-28T11:10:42.054Z,0.82
2022-09-28T11:11:48.237Z,0.65
2022-09-28T11:12:51.372Z,0.70
2022-09-28T11:13:57.964Z,0.70
2022-09-28T11:15:06.524Z,0.88
2022-09-28T11:16:17.913Z,0.70
2022-09-28T11:17:31.330Z,0.88
2022-09-28T11:18:34.480Z,0.70
2022-09-28T11:19:41.771Z,0.60
2022-09-28T11:20:45.395Z,1.00
2022-09-28T11:21:47.326Z,0.80
2022-09-28T11:22:54.634Z,0.70
2022-09-28T11:24:27.910Z,0.90
2022-09-28T11:25:33.343Z,0.80
2022-09-28T11:26:39.511Z,0.80
2022-09-28T11:27:42.445Z,0.90
2022-09-28T11:28:51.633Z,0.90
2022-09-28T11:30:00.949Z,0.82
2022-09-28T11:31:09.585Z,0.90
2022-09-28T11:32:40.121Z,0.60
2022-09-28T11:34:16.784Z,0.93
2022-09-28T11:36:02.734Z,0.90
2022-09-28T11:37:16.440Z,0.88
2022-09-28T11:39:05.320Z,0.68
2022-09-28T11:40:29.348Z,0.93
2022-09-28T11:41:31.327Z,0.70
2022-09-28T11:43:16.873Z,0.93
2022-09-28T11:44:34.922Z,0.70
2022-09-28T11:45:59.453Z,0.80
2022-09-28T11:47:27.310Z,0.50
2022-09-28T11:48:41.483Z,0.70
2022-09-28T11:49:47.062Z,0.68
2022-09-28T11:50:54.771Z,0.93
2022-09-28T11:52:02.592Z,0.73
2022-09-28T11:53:15.032Z,0.80
2022-09-28T11:54:38.712Z,0.75
2022-09-28T11:55:52.492Z,0.63
2022-09-28T11:56:56.086Z,0.60
2022-09-28T11:58:07.325Z,0.77
2022-09-28T11:59:15.316Z,0.73
2022-09-28T12:00:22.705Z,0.80
2022-09-28T12:01:57.384Z,0.90
2022-09-28T12:03:29.417Z,0.82
2022-09-28T12:04:38.596Z,0.70
2022-09-28T12:06:01.119Z,0.60
2022-09-28T12:07:17.912Z,0.70
2022-09-28T12:08:29.134Z,1.08
2022-09-28T12:10:00.035Z,0.68
2022-09-28T12:11:15.931Z,0.63
2022-09-28T12:12:54.701Z,0.77
2022-09-28T12:14:00.683Z,0.85
2022-09-28T12:15:15.985Z,0.57
2022-09-28T12:16:45.224Z,0.70
2022-09-28T12:17:45.299Z,0.80
2022-09-28T12:19:07.012Z,1.20
2022-09-28T12:20:27.422Z,0.80
2022-09-28T12:21:32.228Z,0.70
2022-09-28T12:22:42.932Z,0.77
2022-09-28T12:23:45.725Z,0.88
2022-09-28T12:24:51.183Z,0.70
2022-09-28T12:25:59.574Z,0.85
2022-09-28T12:27:10.238Z,0.70
2022-09-28T12:28:38.349Z,0.68
2022-09-28T12:29:49.829Z,0.60
2022-09-28T12:30:53.750Z,0.60
2022-09-28T12:32:09.878Z,0.65
2022-09-28T12:33:15.363Z,0.60
2022-09-28T12:34:17.273Z,0.70
2022-09-28T12:35:44.962Z,0.82
2022-09-28T12:36:47.563Z,0.93
2022-09-28T12:38:02.301Z,0.65
2022-09-28T12:39:46.821Z,0.80
2022-09-28T12:41:12.482Z,0.80
2022-09-28T12:42:42.418Z,0.73
2022-09-28T12:43:56.135Z,0.50
2022-09-28T12:45:20.820Z,0.60
2022-09-28T12:46:34.980Z,0.75
2022-09-28T12:47:36.930Z,0.50
2022-09-28T12:49:27.264Z,0.90
2022-09-28T12:50:38.998Z,0.80
2022-09-28T12:52:00.386Z,0.45
2022-09-28T12:53:10.792Z,0.65
2022-09-28T12:54:42.511Z,0.60
2022-09-28T12:55:57.993Z,0.73
2022-09-28T12:57:02.667Z,0.70
2022-09-28T12:58:20.993Z,0.52
2022-09-28T12:59:32.464Z,0.77
2022-09-28T13:01:13.937Z,0.95
2022-09-28T13:03:07.967Z,0.57
2022-09-28T13:04:17.296Z,0.57
2022-09-28T13:05:37.371Z,0.57
2022-09-28T13:06:55.745Z,0.70
2022-09-28T13:08:28.320Z,0.85
2022-09-28T13:09:53.120Z,0.75
2022-09-28T13:11:18.264Z,0.80
2022-09-28T13:12:25.931Z,0.68
2022-09-28T13:13:43.357Z,0.60
2022-09-28T13:15:03.515Z,0.63
2022-09-28T13:16:23.417Z,0.75
2022-09-28T13:17:26.836Z,0.80
2022-09-28T13:18:40.795Z,0.60
2022-09-28T13:20:13.126Z,0.82
2022-09-28T13:21:20.699Z,0.63
2022-09-28T13:22:34.237Z,0.70
2022-09-28T13:23:39.402Z,0.70
2022-09-28T13:24:44.828Z,0.80
2022-09-28T13:25:57.352Z,0.90
2022-09-28T13:27:05.893Z,0.70
2022-09-28T13:28:07.766Z,0.80
2022-09-28T13:29:13.353Z,0.57
2022-09-28T13:30:19.467Z,0.75
2022-09-28T13:31:33.048Z,0.80
2022-09-28T13:32:38.987Z,0.60
2022-09-28T13:33:44.651Z,0.63
2022-09-28T13:34:49.895Z,0.50
2022-09-28T13:35:51.835Z,0.70
2022-09-28T13:37:11.251Z,0.80
2022-09-28T13:38:16.470Z,0.70
2022-09-28T13:39:44.357Z,0.70
2022-09-28T13:41:13.564Z,0.60
2022-09-28T13:42:30.430Z,0.75
2022-09-28T13:43:47.982Z,0.70
2022-09-28T13:45:09.642Z,0.75
2022-09-28T13:46:41.004Z,0.60
2022-09-28T13:47:52.605Z,0.70
2022-09-28T13:49:07.172Z,0.60
2022-09-28T13:50:39.487Z,1.00
2022-09-28T13:52:03.315Z,0.80
2022-09-28T13:53:15.834Z,0.57
2022-09-28T13:54:50.869Z,0.60
2022-09-28T13:55:58.487Z,0.60
2022-09-28T13:57:44.570Z,0.70
2022-09-28T13:58:55.707Z,0.70
2022-09-28T14:00:02.140Z,0.60
2022-09-28T14:01:26.998Z,0.65
2022-09-28T14:02:49.366Z,0.80
2022-09-28T14:03:57.279Z,0.52
2022-09-28T14:05:26.723Z,0.75
2022-09-28T14:06:31.391Z,0.60
2022-09-28T14:07:36.331Z,0.80
2022-09-28T14:08:45.680Z,0.60
2022-09-28T14:10:24.606Z,0.60
2022-09-28T14:11:32.114Z,0.80
2022-09-28T14:12:33.969Z,0.60
2022-09-28T14:13:58.552Z,0.52
2022-09-28T14:15:01.404Z,0.77
2022-09-28T14:16:18.316Z,0.60
2022-09-28T14:17:23.993Z,0.60
2022-09-28T14:18:32.001Z,0.60
2022-09-28T14:19:34.613Z,0.70
2022-09-28T14:20:37.330Z,0.95
2022-09-28T14:21:53.709Z,0.73
2022-09-28T14:23:15.913Z,0.70
2022-09-28T14:24:32.757Z,0.70
2022-09-28T14:25:44.514Z,0.57
2022-09-28T14:27:01.258Z,0.63
2022-09-28T14:28:43.067Z,0.70
2022-09-28T14:29:45.755Z,0.50
2022-09-28T14:30:51.563Z,0.70
2022-09-28T14:31:53.556Z,0.82
2022-09-28T14:32:58.330Z,0.55
2022-09-28T14:34:02.705Z,0.63
2022-09-28T14:35:20.309Z,0.70
2022-09-28T14:36:56.150Z,0.70
2022-09-28T14:38:31.908Z,0.70
2022-09-28T14:39:55.460Z,0.60
2022-09-28T14:41:11.227Z,0.70
2022-09-28T14:42:23.064Z,0.70
2022-09-28T14:43:26.875Z,0.60
2022-09-28T14:44:28.796Z,0.65
2022-09-28T14:45:35.874Z,0.80
2022-09-28T14:46:45.713Z,0.50
2022-09-28T14:48:13.616Z,0.60
2022-09-28T14:49:19.224Z,0.50
2022-09-28T14:50:21.004Z,0.57
2022-09-28T14:51:30.352Z,0.60
2022-09-28T14:52:52.690Z,0.50
2022-09-28T14:54:07.781Z,0.68
2022-09-28T14:55:15.372Z,0.75
2022-09-28T14:56:19.307Z,0.68
2022-09-28T14:57:24.536Z,0.70
2022-09-28T14:58:29.772Z,0.70
2022-09-28T14:59:36.335Z,0.80
2022-09-28T15:00:39.203Z,0.98
2022-09-28T15:01:43.382Z,0.70
2022-09-28T15:02:49.996Z,0.70
2022-09-28T15:03:56.471Z,0.68
2022-09-28T15:05:15.040Z,0.80
2022-09-28T15:06:19.256Z,0.80
2022-09-28T15:07:43.482Z,0.60
2022-09-28T15:08:45.837Z,0.65
2022-09-28T15:09:52.931Z,0.65
2022-09-28T15:10:58.040Z,0.70
2022-09-28T15:12:06.029Z,0.60
2022-09-28T15:13:21.533Z,0.68
2022-09-28T15:14:23.296Z,0.68
2022-09-28T15:15:30.725Z,0.40
2022-09-28T15:16:32.832Z,0.80
2022-09-28T15:17:40.090Z,0.70
2022-09-28T15:19:15.888Z,0.80
2022-09-28T15:20:26.728Z,0.70
2022-09-28T15:21:35.826Z,0.60
2022-09-28T15:22:44.945Z,0.70
2022-09-28T15:23:48.040Z,0.60
2022-09-28T15:25:02.439Z,0.52
2022-09-28T15:26:08.649Z,0.70
2022-09-28T15:27:19.411Z,0.50
2022-09-28T15:28:24.012Z,0.77
2022-09-28T15:29:31.169Z,0.57
2022-09-28T15:30:35.097Z,0.50
2022-09-28T15:31:36.975Z,0.70
2022-09-28T15:32:38.669Z,1.00
2022-09-28T15:33:59.970Z,0.73
2022-09-28T15:35:20.623Z,0.60
2022-09-28T15:36:31.511Z,0.50
2022-09-28T15:37:40.400Z,0.73
2022-09-28T15:38:43.138Z,0.70
2022-09-28T15:39:48.283Z,0.60
2022-09-28T15:40:50.743Z,0.70
2022-09-28T15:41:53.199Z,0.50
2022-09-28T15:42:59.039Z,0.50
2022-09-28T15:44:16.949Z,0.63
2022-09-28T15:45:37.332Z,0.55
2022-09-28T15:46:44.242Z,0.68
2022-09-28T15:47:46.013Z,0.50
2022-09-28T15:48:55.682Z,0.60
2022-09-28T15:50:01.820Z,0.70
2022-09-28T15:51:12.388Z,0.73
2022-09-28T15:52:36.517Z,0.50
2022-09-28T15:53:50.947Z,0.52
2022-09-28T15:54:54.297Z,0.50
2022-09-28T15:56:03.644Z,0.50
2022-09-28T15:57:05.496Z,0.50
2022-09-28T15:58:16.670Z,0.52
2022-09-28T15:59:31.011Z,0.57
2022-09-28T16:00:32.824Z,0.50
2022-09-28T16:01:37.938Z,0.60